Mc Gregor, North Dakota
Current Conditions -  °F | °C
As of 8:55 PM on Saturday 25 Oct 2014 (Local Time) from KD60 Reporting Station
Clear Clear  
Wind Chill: 39°   Ceiling: Unl
Heat Index: 45°   Visibility: 10mi
Dew Point: 30°   Wind: 12mph
Humidity: 57%   Direction: 130°SE
Pressure: 29.92"   Gusts: NA
Location:  48.5898°N, 102.95°W
Report Text: KD60 260155Z AUTO 13010KT 10SM CLR 07/M01 A2992 RMK AO2
Loading
Personal Weather Stations






























Interactive Weather Map
Tropical Storm Tracking
New forecast layout! Learn more

10-Day Weather Forecast

Advertisements
Track Severe Weather on mobile